Nearby METAR Reports

 

GCLP - Las Palmas/Gando, Spain
Distance from station: NE 26km
Updated: 15/07/2020 10:30
Few Clouds
Few Clouds
 Wind from N
Wind: N 48 km/h
Temperature: 27°C
Heat Index: 28°C
Dew Point: 18°C
Humidity: 58%
Barometer: 1012 hPa
Clouds: Few Clouds
Visibility: 10 km
Cloud details: Few Clouds 762 m
2020/07/15 10:30 GCLP 151030Z 01026KT 9999 FEW025 27/18 Q1012 NOSIG
GCTS - Tenerife Sur/Rei, Spain
Distance from station: WNW 102km
Updated: 15/07/2020 10:30
Clear
Clear
 Wind from E
Wind: E 30 km/h
Temperature: 26°C
Dew Point: 18°C
Humidity: 61%
Barometer: 1012 hPa
Summary: Clear
Visibility: greater than 10 km
2020/07/15 10:30 GCTS 151030Z 09016KT CAVOK 26/18 Q1012 NOSIG
 
GCXO - Tenerife/Los Rod, Spain
Distance from station: NW 110km
Updated: 15/07/2020 10:30
Partly cloudy
Partly cloudy
 Wind from WNW
Wind: WNW 30 km/h
Temperature: 21°C
Dew Point: 17°C
Humidity: 78%
Barometer: 1016 hPa
Clouds: Partly cloudy
Visibility: 10 km
Cloud details: Few Clouds 61 m
Partly cloudy 213 m
2020/07/15 10:30 GCXO 151030Z 29016KT 9999 FEW002 SCT007 21/17 Q1016 NOSIG
GCGM - La Gomera Arpt, Spain
Distance from station: W 164km
Updated: 15/07/2020 10:30
Few Clouds
Few Clouds
 Wind from SSW
Wind: SSW 9 km/h
Temperature: 26°C
Dew Point: 18°C
Humidity: 61%
Barometer: 1013 hPa
Clouds: Few Clouds
Visibility: 10 km
Cloud details: Few Clouds 305 m
2020/07/15 10:30 GCGM 151030Z 21005KT 170V250 9999 FEW010 26/18 Q1013 RMK R09/VRB04KT ARP/22004KT 150V290
 
GCFV - Fuerteventura Ar, Spain
Distance from station: ENE 183km
Updated: 15/07/2020 10:30
Few Clouds
Few Clouds
 Wind from ENE
Wind: ENE 20 km/h
Temperature: 25°C
Dew Point: 21°C
Humidity: 79%
Barometer: 1011 hPa
Clouds: Few Clouds
Visibility: 10 km
Cloud details: Few Clouds 610 m
2020/07/15 10:30 GCFV 151030Z 06011KT 9999 FEW020 25/21 Q1011
GCHI - Hierro Airport, Spain
Distance from station: W 226km
Updated: 15/07/2020 10:30
Partly cloudy
Partly cloudy
 Wind from NNW
Wind: NNW 35 km/h
Temperature: 24°C
Dew Point: 17°C
Humidity: 65%
Barometer: 1014 hPa
Clouds: Partly cloudy
Visibility: 10 km
Cloud details: Partly cloudy 610 m
2020/07/15 10:30 GCHI 151030Z 34019KT 9999 SCT020 24/17 Q1014
 
GCLA - La Palma Airport, Spain
Distance from station: WNW 233km
Updated: 15/07/2020 10:30
Few Clouds
Few Clouds
 Wind from NNE
Wind: NNE 26 km/h
Temperature: 24°C
Dew Point: 19°C
Humidity: 74%
Barometer: 1015 hPa
Clouds: Few Clouds
Visibility: 10 km
Cloud details: Few Clouds 914 m
2020/07/15 10:30 GCLA 151030Z 02014KT 340V070 9999 FEW030 24/19 Q1015
GCRR - Arrecife/Lanzaro, Spain
Distance from station: NE 234km
Updated: 15/07/2020 10:30
Few Clouds
Few Clouds
 Wind from N
Wind: N 44 km/h
Temperature: 26°C
Dew Point: 19°C
Humidity: 65%
Barometer: 1011 hPa
Clouds: Few Clouds
Visibility: 10 km
Cloud details: Few Clouds 457 m
2020/07/15 10:30 GCRR 151030Z 36024KT 9999 FEW015 26/19 Q1011
 
LPMA - Funchal/Madeira, Portugal
Distance from station: NNW 556km
Updated: 15/07/2020 10:30
Few Clouds
Few Clouds
 Wind from N
Wind: N 39 km/h, Gust: 59 km/h
Temperature: 23°C
Dew Point: 15°C
Humidity: 61%
Barometer: 1016 hPa
Clouds: Few Clouds
Visibility: 10 km
Cloud details: Few Clouds 457 m
2020/07/15 10:30 LPMA 151030Z 01021G32KT 330V040 9999 FEW015 23/15 Q1016
LPPS - Porto Santo Isla, Portugal
Distance from station: N 594km
Updated: 15/07/2020 10:30
Mostly cloudy
Mostly cloudy
 Wind from N
Wind: N 31 km/h, Gust: 50 km/h
Temperature: 22°C
Dew Point: 15°C
Humidity: 65%
Barometer: 1017 hPa
Clouds: Mostly cloudy
Visibility: 10 km
Cloud details: Partly cloudy 457 m
Mostly cloudy 914 m
2020/07/15 10:30 LPPS 151030Z 01017G27KT 9999 SCT015 BKN030 22/15 Q1017